Time;durP1;ratioP1;P1;durP2;ratioP2;P2;SDS_P1;SDS_P2;PMS_P1;PMS_P2;Temp;Humidity;BMP_temperature;BMP_pressure;BME280_temperature;BME280_humidity;BME280_pressure;Samples;Min_cycle;Max_cycle;Signal;HPM_P1;HPM_P2
2023/05/27 00:00:46;;;;;;;27.17;9.18;;;29.80;99.90;;;;;;5046130;28;20111;-43
2023/05/27 00:03:13;;;;;;;26.92;12.68;;;29.70;99.90;;;;;;5045708;28;20013;-45
2023/05/27 00:05:41;;;;;;;25.88;10.40;;;29.70;99.90;;;;;;5044894;28;20041;-49
2023/05/27 00:08:07;;;;;;;27.40;8.45;;;29.70;99.90;;;;;;5046116;28;20060;-46
2023/05/27 00:10:34;;;;;;;16.02;6.70;;;29.90;99.90;;;;;;5045861;28;20057;-45
2023/05/27 00:13:00;;;;;;;16.67;4.97;;;29.70;99.90;;;;;;5046049;28;20013;-52
2023/05/27 00:15:27;;;;;;;10.88;4.65;;;29.80;99.90;;;;;;5046426;28;20104;-48
2023/05/27 00:17:54;;;;;;;10.35;4.75;;;29.70;99.80;;;;;;5045966;28;20032;-44
2023/05/27 00:20:22;;;;;;;10.13;3.75;;;29.70;99.80;;;;;;5044915;28;20321;-49
2023/05/27 00:22:50;;;;;;;9.18;3.35;;;29.80;99.80;;;;;;5046000;28;20030;-51
2023/05/27 00:25:20;;;;;;;8.02;2.97;;;29.60;99.80;;;;;;5046255;28;20031;-52
2023/05/27 00:27:47;;;;;;;10.13;2.72;;;29.80;99.90;;;;;;5045921;28;20055;-44
2023/05/27 00:30:14;;;;;;;7.18;2.75;;;29.60;99.90;;;;;;5045837;28;20348;-45
2023/05/27 00:32:41;;;;;;;5.05;2.45;;;29.70;99.90;;;;;;5045653;28;20039;-44
2023/05/27 00:35:08;;;;;;;6.97;2.75;;;29.80;99.90;;;;;;5046295;28;20026;-52
2023/05/27 00:37:34;;;;;;;8.68;2.90;;;29.80;99.90;;;;;;5045504;28;20040;-44
2023/05/27 00:40:01;;;;;;;7.50;3.45;;;29.60;99.90;;;;;;5045799;28;20021;-44
2023/05/27 00:42:28;;;;;;;7.55;3.17;;;29.60;99.90;;;;;;5045858;28;20017;-49
2023/05/27 00:44:54;;;;;;;7.78;3.83;;;29.80;99.90;;;;;;5045808;28;20030;-45
2023/05/27 00:47:29;;;;;;;6.53;3.50;;;29.70;99.90;;;;;;5045354;28;20310;-44
2023/05/27 00:49:56;;;;;;;9.82;3.33;;;29.90;99.90;;;;;;5045715;28;20029;-46
2023/05/27 00:52:23;;;;;;;8.05;3.33;;;29.90;99.90;;;;;;5045583;28;20048;-41
2023/05/27 00:54:50;;;;;;;8.52;3.03;;;29.80;99.90;;;;;;5045447;28;20085;-44
2023/05/27 00:57:17;;;;;;;4.63;2.65;;;29.70;99.90;;;;;;5045393;28;20033;-49
2023/05/27 00:59:43;;;;;;;6.88;2.58;;;29.70;99.90;;;;;;5045257;28;20033;-44
2023/05/27 01:02:10;;;;;;;5.22;2.10;;;29.70;99.90;;;;;;5045110;28;20021;-47
2023/05/27 01:04:36;;;;;;;8.48;2.03;;;29.60;99.90;;;;;;5045516;28;20033;-47
2023/05/27 01:07:03;;;;;;;6.00;1.48;;;29.70;99.90;;;;;;5045112;28;20048;-49
2023/05/27 01:09:45;;;;;;;6.28;1.30;;;29.60;99.90;;;;;;5044870;28;20029;-51
2023/05/27 01:12:23;;;;;;;4.80;1.20;;;29.50;99.90;;;;;;5045136;28;20033;-47
2023/05/27 01:14:51;;;;;;;7.47;1.35;;;29.70;99.90;;;;;;5044908;28;20018;-48
2023/05/27 01:17:19;;;;;;;4.55;1.40;;;29.70;99.90;;;;;;5045078;28;20025;-50
2023/05/27 01:19:47;;;;;;;10.35;1.45;;;29.60;99.90;;;;;;5045079;28;20036;-49
2023/05/27 01:22:15;;;;;;;6.18;1.00;;;29.40;99.90;;;;;;5044837;28;20017;-48
2023/05/27 01:24:41;;;;;;;6.20;0.93;;;29.40;99.90;;;;;;5044923;28;20038;-47
2023/05/27 01:27:12;;;;;;;4.93;0.93;;;29.60;99.90;;;;;;5044790;28;20017;-44
2023/05/27 01:29:41;;;;;;;2.72;0.77;;;29.50;99.80;;;;;;5044820;28;20191;-49
2023/05/27 01:32:20;;;;;;;4.10;0.93;;;29.50;99.80;;;;;;5044400;28;20075;-45
2023/05/27 01:35:05;;;;;;;6.47;1.08;;;29.40;99.80;;;;;;5044671;28;20060;-53
2023/05/27 01:37:40;;;;;;;7.63;2.17;;;29.50;99.80;;;;;;5044607;28;20034;-45
2023/05/27 01:40:09;;;;;;;9.43;3.20;;;29.40;99.80;;;;;;5044883;28;20013;-44
2023/05/27 01:42:38;;;;;;;9.18;4.47;;;29.50;99.90;;;;;;5044540;28;20326;-47
2023/05/27 01:45:06;;;;;;;8.02;4.18;;;29.50;99.80;;;;;;5044661;28;20021;-46
2023/05/27 01:47:34;;;;;;;5.55;3.47;;;29.30;99.70;;;;;;5044464;28;20025;-43
2023/05/27 01:50:01;;;;;;;10.68;2.92;;;29.20;99.70;;;;;;5044594;28;20030;-47
2023/05/27 01:52:28;;;;;;;9.45;3.00;;;29.30;99.70;;;;;;5044273;28;20052;-47
2023/05/27 01:54:55;;;;;;;6.80;2.10;;;29.30;99.70;;;;;;5044607;28;20132;-46
2023/05/27 01:57:24;;;;;;;10.05;2.15;;;29.40;99.70;;;;;;5044460;28;20067;-47
2023/05/27 01:59:51;;;;;;;13.07;1.92;;;29.40;99.70;;;;;;5044004;28;20025;-53
2023/05/27 02:02:18;;;;;;;6.80;1.52;;;29.20;99.80;;;;;;5044294;28;20021;-48
2023/05/27 02:04:45;;;;;;;6.15;1.30;;;29.20;99.50;;;;;;5044336;28;20049;-51
2023/05/27 02:07:11;;;;;;;4.78;1.20;;;29.10;99.50;;;;;;5044085;28;20027;-49
2023/05/27 02:09:38;;;;;;;7.43;1.33;;;29.10;99.40;;;;;;5043967;28;20098;-45
2023/05/27 02:12:06;;;;;;;5.78;1.40;;;29.20;99.30;;;;;;5044330;28;20026;-50
2023/05/27 02:14:32;;;;;;;7.72;1.20;;;29.10;99.20;;;;;;5044120;28;20340;-50
2023/05/27 02:16:59;;;;;;;6.45;1.25;;;28.90;99.10;;;;;;5044141;28;20033;-50
2023/05/27 02:19:25;;;;;;;6.32;1.30;;;29.00;99.30;;;;;;5044050;28;20281;-49
2023/05/27 02:21:52;;;;;;;7.28;1.63;;;29.00;99.20;;;;;;5044220;28;20017;-46
2023/05/27 02:24:18;;;;;;;8.90;1.85;;;28.90;99.20;;;;;;5044100;28;20052;-48
2023/05/27 02:26:45;;;;;;;6.07;2.30;;;29.10;99.20;;;;;;5043885;28;20037;-47
2023/05/27 02:29:11;;;;;;;7.13;2.13;;;28.90;99.10;;;;;;5043792;28;20297;-46
2023/05/27 02:31:38;;;;;;;6.82;2.10;;;29.00;99.10;;;;;;5043648;28;20040;-59
2023/05/27 02:34:05;;;;;;;8.75;2.83;;;29.00;99.20;;;;;;5043805;28;20034;-47
2023/05/27 02:36:31;;;;;;;6.78;2.03;;;29.00;99.10;;;;;;5043720;28;20025;-48
2023/05/27 02:38:58;;;;;;;5.88;1.80;;;29.00;99.10;;;;;;5043614;28;20055;-47
2023/05/27 02:41:24;;;;;;;5.97;1.67;;;28.90;99.00;;;;;;5043686;28;20312;-47
2023/05/27 02:43:51;;;;;;;9.07;2.10;;;28.90;99.00;;;;;;5045439;28;20055;-50
2023/05/27 02:46:17;;;;;;;6.35;1.52;;;28.90;99.10;;;;;;5047749;28;20221;-50
2023/05/27 02:48:44;;;;;;;7.50;1.40;;;29.00;99.10;;;;;;5047714;28;20029;-51
2023/05/27 02:51:10;;;;;;;4.30;1.27;;;28.80;99.00;;;;;;5048248;28;20024;-46
2023/05/27 02:53:37;;;;;;;8.40;1.48;;;29.00;99.00;;;;;;5047640;28;20021;-45
2023/05/27 02:56:04;;;;;;;6.13;0.93;;;28.80;99.00;;;;;;5048071;28;20355;-48
2023/05/27 02:58:30;;;;;;;7.05;0.98;;;29.00;99.10;;;;;;5047530;28;20073;-47
2023/05/27 03:00:57;;;;;;;9.27;0.77;;;28.80;99.10;;;;;;5047901;28;20030;-51
2023/05/27 03:03:23;;;;;;;5.13;1.08;;;28.90;99.10;;;;;;5047645;28;20034;-50
2023/05/27 03:05:50;;;;;;;5.95;0.85;;;28.80;99.10;;;;;;5047844;28;20324;-48
2023/05/27 03:08:17;;;;;;;5.32;0.60;;;28.90;99.20;;;;;;5047335;28;20030;-45
2023/05/27 03:10:43;;;;;;;5.15;0.88;;;28.90;99.20;;;;;;5047337;28;20044;-48
2023/05/27 03:13:10;;;;;;;7.25;0.68;;;28.90;99.30;;;;;;5047344;28;20357;-51
2023/05/27 03:15:36;;;;;;;3.22;0.70;;;29.00;99.30;;;;;;5047669;28;20064;-49
2023/05/27 03:18:03;;;;;;;9.68;1.05;;;29.00;99.30;;;;;;5047358;28;20041;-47
2023/05/27 03:20:29;;;;;;;9.55;1.05;;;28.80;99.20;;;;;;5047518;28;20026;-47
2023/05/27 03:22:56;;;;;;;4.97;0.70;;;28.70;99.10;;;;;;5047477;28;20056;-50
2023/05/27 03:25:23;;;;;;;5.38;1.85;;;28.80;99.20;;;;;;5047583;28;20034;-48
2023/05/27 03:27:49;;;;;;;8.10;2.00;;;28.80;99.20;;;;;;5046992;28;20221;-49
2023/05/27 03:30:16;;;;;;;5.82;2.00;;;28.90;99.30;;;;;;5047433;28;20029;-54
2023/05/27 03:32:42;;;;;;;10.25;2.15;;;28.70;99.30;;;;;;5046776;28;20028;-45
2023/05/27 03:35:09;;;;;;;4.07;1.58;;;28.80;99.40;;;;;;5047202;28;20032;-49
2023/05/27 03:37:36;;;;;;;4.32;1.00;;;28.80;99.30;;;;;;5046896;28;20021;-54
2023/05/27 03:40:03;;;;;;;9.25;1.10;;;28.90;99.40;;;;;;5047085;28;20059;-48
2023/05/27 03:42:30;;;;;;;7.65;1.20;;;28.90;99.50;;;;;;5046817;28;20014;-52
2023/05/27 03:44:56;;;;;;;7.22;1.00;;;28.90;99.50;;;;;;5046887;28;20136;-50
2023/05/27 03:47:23;;;;;;;4.50;0.82;;;28.80;99.40;;;;;;5046549;28;20103;-47
2023/05/27 03:49:50;;;;;;;7.28;0.90;;;28.90;99.40;;;;;;5046772;28;20025;-44
2023/05/27 03:52:16;;;;;;;4.53;1.00;;;28.80;99.40;;;;;;5046661;28;20022;-49
2023/05/27 03:54:43;;;;;;;6.72;0.90;;;28.70;99.40;;;;;;5046571;28;20061;-53
2023/05/27 03:57:09;;;;;;;5.38;1.23;;;28.90;99.50;;;;;;5046672;28;20018;-51
2023/05/27 03:59:37;;;;;;;8.13;1.20;;;28.80;99.50;;;;;;5046665;28;20290;-48
2023/05/27 04:02:04;;;;;;;5.28;0.82;;;28.80;99.50;;;;;;5046354;28;20044;-52
2023/05/27 04:04:30;;;;;;;7.05;1.20;;;28.70;99.40;;;;;;5046411;28;20029;-47
2023/05/27 04:06:57;;;;;;;7.03;1.35;;;28.90;99.50;;;;;;5046390;28;20071;-54
2023/05/27 04:09:23;;;;;;;7.88;1.30;;;28.70;99.40;;;;;;5046067;28;20045;-51
2023/05/27 04:11:50;;;;;;;9.77;1.50;;;28.80;99.40;;;;;;5046197;28;20067;-49
2023/05/27 04:14:18;;;;;;;7.03;1.42;;;28.70;99.30;;;;;;5046482;28;20028;-46
2023/05/27 04:16:44;;;;;;;6.38;1.10;;;28.70;99.40;;;;;;5046041;28;20030;-49
2023/05/27 04:19:13;;;;;;;4.90;1.15;;;28.70;99.40;;;;;;5046124;28;20055;-51
2023/05/27 04:21:40;;;;;;;7.80;1.33;;;28.60;99.40;;;;;;5046029;28;20064;-52
2023/05/27 04:24:07;;;;;;;5.13;1.20;;;28.60;99.30;;;;;;5045912;28;20029;-51
2023/05/27 04:26:33;;;;;;;5.05;0.98;;;28.80;99.40;;;;;;5045994;28;20310;-45
2023/05/27 04:29:00;;;;;;;6.43;0.73;;;28.50;99.30;;;;;;5045965;28;20218;-50
2023/05/27 04:31:28;;;;;;;5.35;0.80;;;28.80;99.50;;;;;;5045731;28;20040;-48
2023/05/27 04:33:55;;;;;;;8.93;1.40;;;28.70;99.40;;;;;;5045806;28;20262;-45
2023/05/27 04:36:25;;;;;;;7.85;0.90;;;28.60;99.30;;;;;;5045834;28;20059;-47
2023/05/27 04:38:52;;;;;;;8.88;0.90;;;28.60;99.30;;;;;;5045509;28;20025;-45
2023/05/27 04:41:20;;;;;;;8.30;0.85;;;28.70;99.40;;;;;;5045665;28;20032;-50
2023/05/27 04:43:48;;;;;;;7.63;0.95;;;28.60;99.30;;;;;;5045687;28;20100;-45
2023/05/27 04:46:14;;;;;;;5.63;0.60;;;28.70;99.40;;;;;;5045548;28;20049;-44
2023/05/27 04:48:40;;;;;;;3.53;0.70;;;28.60;99.40;;;;;;5045459;28;20021;-50
2023/05/27 04:51:07;;;;;;;10.90;0.98;;;28.50;99.30;;;;;;5046062;28;20309;-49
2023/05/27 04:53:34;;;;;;;8.57;0.95;;;28.50;99.30;;;;;;5045401;28;20063;-50
2023/05/27 04:56:00;;;;;;;4.15;0.85;;;28.50;99.40;;;;;;5045854;28;20033;-46
2023/05/27 04:58:28;;;;;;;4.07;0.60;;;28.40;99.40;;;;;;5045409;28;20032;-43
2023/05/27 05:00:56;;;;;;;3.50;0.73;;;28.60;99.40;;;;;;5045614;28;20033;-44
2023/05/27 05:03:36;;;;;;;3.78;0.70;;;28.60;99.40;;;;;;5045287;28;20088;-50
2023/05/27 05:06:03;;;;;;;5.75;0.50;;;28.40;99.30;;;;;;5045193;28;20088;-44
2023/05/27 05:08:30;;;;;;;2.35;0.60;;;28.40;99.20;;;;;;5045061;28;20033;-51
2023/05/27 05:10:57;;;;;;;6.68;0.50;;;28.40;99.20;;;;;;5045110;28;20083;-43
2023/05/27 05:13:28;;;;;;;7.00;0.70;;;28.40;99.10;;;;;;5045220;28;20018;-48
2023/05/27 05:15:55;;;;;;;8.27;0.43;;;28.40;98.90;;;;;;5045011;28;20346;-48
2023/05/27 05:18:22;;;;;;;6.60;0.45;;;28.30;98.80;;;;;;5045037;28;20194;-49
2023/05/27 05:20:48;;;;;;;5.47;0.60;;;28.30;98.80;;;;;;5045372;28;20067;-51
2023/05/27 05:23:15;;;;;;;5.57;0.50;;;28.40;98.80;;;;;;5044844;28;20033;-44
2023/05/27 05:25:41;;;;;;;8.80;0.70;;;28.30;98.80;;;;;;5045279;28;20025;-45
2023/05/27 05:28:08;;;;;;;8.55;0.80;;;28.30;98.80;;;;;;5044843;28;20049;-44
2023/05/27 05:30:34;;;;;;;6.15;0.68;;;28.20;98.70;;;;;;5052119;28;20037;-43
2023/05/27 05:33:01;;;;;;;5.25;0.50;;;28.20;98.90;;;;;;5055996;28;20293;-50
2023/05/27 05:35:27;;;;;;;5.20;0.68;;;28.40;98.80;;;;;;5045145;28;20025;-48
2023/05/27 05:37:54;;;;;;;4.93;0.52;;;28.50;98.80;;;;;;5044574;28;20037;-46
2023/05/27 05:40:23;;;;;;;7.57;0.57;;;28.30;98.70;;;;;;5044939;28;20266;-49
2023/05/27 05:42:49;;;;;;;5.57;0.50;;;28.40;98.60;;;;;;5044617;28;20029;-46
2023/05/27 05:45:16;;;;;;;8.88;0.80;;;28.40;98.60;;;;;;5044792;28;20067;-53
2023/05/27 05:47:42;;;;;;;3.30;0.40;;;28.40;98.40;;;;;;5044384;28;20045;-46
2023/05/27 05:50:09;;;;;;;4.93;0.35;;;28.30;98.20;;;;;;5044911;28;20072;-46
2023/05/27 05:52:36;;;;;;;7.35;0.50;;;28.50;98.30;;;;;;5044288;28;20092;-47
2023/05/27 05:55:03;;;;;;;3.97;0.50;;;28.50;98.50;;;;;;5044638;28;20025;-53
2023/05/27 05:57:31;;;;;;;6.10;0.52;;;28.30;98.10;;;;;;5052004;28;20297;-56
2023/05/27 05:59:58;;;;;;;6.47;0.60;;;28.50;98.20;;;;;;5047619;28;20029;-51
2023/05/27 06:02:25;;;;;;;4.18;0.47;;;28.30;98.00;;;;;;5044362;28;20018;-52
2023/05/27 06:04:52;;;;;;;5.25;0.68;;;28.30;98.10;;;;;;5044492;28;20092;-51
2023/05/27 06:07:18;;;;;;;3.35;0.30;;;28.40;98.10;;;;;;5044099;28;20034;-55
2023/05/27 06:09:45;;;;;;;2.88;0.38;;;28.40;98.10;;;;;;5043951;28;20053;-47
2023/05/27 06:12:11;;;;;;;3.35;0.50;;;28.30;98.10;;;;;;5044193;28;20017;-44
2023/05/27 06:14:38;;;;;;;8.70;0.70;;;28.20;98.00;;;;;;5044124;28;20056;-45
2023/05/27 06:17:05;;;;;;;5.55;0.65;;;28.30;98.00;;;;;;5044069;28;20009;-47
2023/05/27 06:19:31;;;;;;;6.43;0.65;;;28.20;98.00;;;;;;5043535;28;20329;-45
2023/05/27 06:21:58;;;;;;;3.85;0.60;;;28.20;97.90;;;;;;5043858;28;20029;-46
2023/05/27 06:24:24;;;;;;;8.02;0.80;;;28.20;97.90;;;;;;5044270;28;20029;-46
2023/05/27 06:26:51;;;;;;;3.90;0.90;;;28.20;98.10;;;;;;5043956;28;20017;-48
2023/05/27 06:29:18;;;;;;;6.78;0.90;;;28.10;97.90;;;;;;5043689;28;20037;-53
2023/05/27 06:31:46;;;;;;;7.53;1.00;;;28.20;97.90;;;;;;5043821;28;20021;-45
2023/05/27 06:34:12;;;;;;;4.90;0.73;;;28.30;97.90;;;;;;5043949;28;20298;-47
2023/05/27 06:36:39;;;;;;;5.25;0.70;;;28.20;97.90;;;;;;5043692;28;20028;-45
2023/05/27 06:39:05;;;;;;;4.80;0.70;;;28.10;97.90;;;;;;5043923;28;20021;-51
2023/05/27 06:41:32;;;;;;;9.73;1.13;;;28.10;97.90;;;;;;5043826;28;20052;-51
2023/05/27 06:43:58;;;;;;;8.32;0.68;;;28.20;97.90;;;;;;5043683;28;20317;-53
2023/05/27 06:46:25;;;;;;;2.15;0.50;;;28.20;98.00;;;;;;5043706;28;20040;-46
2023/05/27 06:48:51;;;;;;;3.10;0.50;;;28.30;98.10;;;;;;5043657;28;20085;-45
2023/05/27 06:51:18;;;;;;;9.23;1.20;;;28.20;98.10;;;;;;5043566;28;20036;-47
2023/05/27 06:53:45;;;;;;;2.25;0.47;;;28.20;98.10;;;;;;5043640;28;20028;-45
2023/05/27 06:56:12;;;;;;;5.45;0.93;;;28.30;98.20;;;;;;5044178;28;20030;-47
2023/05/27 06:58:39;;;;;;;5.75;0.60;;;28.10;98.10;;;;;;5043656;28;20029;-47
2023/05/27 07:01:05;;;;;;;5.20;0.80;;;28.30;98.30;;;;;;5043419;28;20029;-44
2023/05/27 07:03:32;;;;;;;9.73;0.90;;;28.30;98.40;;;;;;5043585;28;20022;-48
2023/05/27 07:05:58;;;;;;;4.30;0.88;;;28.10;98.30;;;;;;5043956;28;20076;-45
2023/05/27 07:08:25;;;;;;;12.38;0.95;;;28.20;98.40;;;;;;5043346;28;20033;-45
2023/05/27 07:10:51;;;;;;;7.70;0.80;;;28.00;98.30;;;;;;5043461;28;20049;-51
2023/05/27 07:13:18;;;;;;;9.27;0.88;;;28.20;98.40;;;;;;5043736;28;20258;-46
2023/05/27 07:15:44;;;;;;;5.57;0.70;;;28.20;98.40;;;;;;5043781;28;20024;-47
2023/05/27 07:18:11;;;;;;;4.43;0.60;;;27.90;98.30;;;;;;5043532;28;20067;-45
2023/05/27 07:20:38;;;;;;;4.60;0.50;;;28.10;98.40;;;;;;5043784;28;20041;-45
2023/05/27 07:23:05;;;;;;;12.50;1.25;;;28.00;98.30;;;;;;5043252;28;20218;-48
2023/05/27 07:25:33;;;;;;;5.38;0.43;;;27.90;98.20;;;;;;5043813;28;20027;-48
2023/05/27 07:27:59;;;;;;;4.70;0.68;;;28.00;98.30;;;;;;5043322;28;20097;-45
2023/05/27 07:30:26;;;;;;;4.03;0.50;;;28.10;98.40;;;;;;5046091;28;20028;-47
2023/05/27 07:32:53;;;;;;;6.60;0.50;;;28.00;98.30;;;;;;5047050;28;20021;-50
2023/05/27 07:35:20;;;;;;;6.05;0.60;;;28.00;98.30;;;;;;5047617;28;20324;-45
2023/05/27 07:37:46;;;;;;;4.30;0.50;;;28.10;98.30;;;;;;5046878;28;20084;-45
2023/05/27 07:40:13;;;;;;;4.18;0.50;;;27.90;98.20;;;;;;5047192;28;20032;-47
2023/05/27 07:42:39;;;;;;;5.18;0.65;;;28.10;98.40;;;;;;5046857;28;20033;-45
2023/05/27 07:45:06;;;;;;;5.60;0.60;;;28.00;98.30;;;;;;5046637;28;20026;-51
2023/05/27 07:47:33;;;;;;;4.90;0.47;;;28.00;98.30;;;;;;5051100;28;20024;-54
2023/05/27 07:50:00;;;;;;;5.50;0.55;;;28.00;98.30;;;;;;5067155;28;20198;-46
2023/05/27 07:52:26;;;;;;;6.95;0.70;;;28.00;98.20;;;;;;5066582;28;20079;-44
2023/05/27 07:54:53;;;;;;;8.13;0.68;;;27.90;98.10;;;;;;5067022;28;20092;-44
2023/05/27 07:57:19;;;;;;;4.35;0.68;;;27.90;98.10;;;;;;5066571;28;20052;-45
2023/05/27 07:59:46;;;;;;;5.43;0.60;;;27.90;98.10;;;;;;5066631;28;20036;-49
2023/05/27 08:02:12;;;;;;;6.35;0.43;;;27.90;98.10;;;;;;5066697;28;20067;-49
2023/05/27 08:04:39;;;;;;;7.15;0.68;;;27.90;98.10;;;;;;5066603;28;20087;-46
2023/05/27 08:07:05;;;;;;;8.30;0.70;;;27.80;98.00;;;;;;5066518;28;20024;-48
2023/05/27 08:09:32;;;;;;;3.55;0.52;;;27.70;97.90;;;;;;5066183;28;20025;-47
2023/05/27 08:11:59;;;;;;;8.15;0.50;;;27.80;97.80;;;;;;5066460;28;20033;-48
2023/05/27 08:14:27;;;;;;;3.22;0.40;;;27.80;97.80;;;;;;5066346;28;20328;-44
2023/05/27 08:16:54;;;;;;;8.23;0.50;;;27.80;97.70;;;;;;5066108;28;20029;-46
2023/05/27 08:19:21;;;;;;;3.00;0.50;;;27.80;97.60;;;;;;5066209;28;20028;-45
2023/05/27 08:21:47;;;;;;;6.50;0.50;;;27.80;97.70;;;;;;5066052;28;20217;-50
2023/05/27 08:24:14;;;;;;;6.78;0.98;;;27.80;97.70;;;;;;5066088;28;20048;-54
2023/05/27 08:26:41;;;;;;;4.18;0.50;;;27.70;97.60;;;;;;5065949;28;20063;-45
2023/05/27 08:29:07;;;;;;;4.50;0.50;;;27.70;97.60;;;;;;5065876;28;21159;-47
2023/05/27 08:31:34;;;;;;;4.22;0.57;;;27.80;97.70;;;;;;5065758;28;20309;-45
2023/05/27 08:34:00;;;;;;;5.93;0.70;;;27.70;97.70;;;;;;5065926;28;20036;-46
2023/05/27 08:36:27;;;;;;;9.10;0.70;;;27.80;97.70;;;;;;5065815;28;20023;-47
2023/05/27 08:38:53;;;;;;;5.70;0.38;;;27.80;97.70;;;;;;5065715;28;20025;-49
2023/05/27 08:41:21;;;;;;;3.55;0.28;;;27.60;97.60;;;;;;5064791;28;20028;-48
2023/05/27 08:43:48;;;;;;;6.85;0.60;;;27.60;97.70;;;;;;5065624;28;20021;-46
2023/05/27 08:46:15;;;;;;;4.75;0.52;;;27.80;97.80;;;;;;5065574;28;20216;-45
2023/05/27 08:48:42;;;;;;;7.68;0.80;;;27.70;97.70;;;;;;5065548;28;20036;-52
2023/05/27 08:51:10;;;;;;;8.55;0.50;;;27.60;97.80;;;;;;5066063;28;20209;-46
2023/05/27 08:53:36;;;;;;;9.02;0.50;;;27.70;97.90;;;;;;5065458;28;20031;-47
2023/05/27 08:56:05;;;;;;;5.28;0.40;;;27.70;97.80;;;;;;5065936;28;20079;-51
2023/05/27 08:58:32;;;;;;;7.75;0.90;;;27.70;97.80;;;;;;5065351;28;20044;-46
2023/05/27 09:01:00;;;;;;;4.13;0.90;;;27.70;97.90;;;;;;5065690;28;20028;-48
2023/05/27 09:03:27;;;;;;;4.90;0.57;;;27.70;97.90;;;;;;5065271;28;20037;-47
2023/05/27 09:05:55;;;;;;;8.80;0.75;;;27.70;98.00;;;;;;5065540;28;20036;-48
2023/05/27 09:08:22;;;;;;;7.63;0.47;;;27.60;98.00;;;;;;5065035;28;20016;-46
2023/05/27 09:10:49;;;;;;;7.75;0.98;;;27.80;98.10;;;;;;5065042;28;20053;-46
2023/05/27 09:13:27;;;;;;;5.78;0.73;;;27.70;98.00;;;;;;5065127;28;20238;-46
2023/05/27 09:16:04;;;;;;;3.10;0.55;;;27.70;98.00;;;;;;5065477;28;20032;-53
2023/05/27 09:18:35;;;;;;;8.48;0.82;;;27.70;98.00;;;;;;5065070;28;20276;-54
2023/05/27 09:21:03;;;;;;;2.10;0.40;;;27.70;98.10;;;;;;5065276;28;20033;-54
2023/05/27 09:23:29;;;;;;;5.13;0.65;;;27.70;98.00;;;;;;5064903;28;20090;-54
2023/05/27 09:25:56;;;;;;;6.70;0.65;;;27.70;98.00;;;;;;5065408;28;20029;-46
2023/05/27 09:28:23;;;;;;;4.25;1.00;;;27.50;97.90;;;;;;5064472;28;20040;-51
2023/05/27 09:31:09;;;;;;;8.27;1.90;;;27.70;98.00;;;;;;5064695;28;20044;-44
2023/05/27 09:33:38;;;;;;;11.60;4.40;;;27.50;98.00;;;;;;5064548;28;20067;-45
2023/05/27 09:36:06;;;;;;;12.35;5.43;;;27.60;98.10;;;;;;5065233;28;20017;-45
2023/05/27 09:38:34;;;;;;;10.95;4.55;;;27.70;98.10;;;;;;5064646;28;20028;-44
2023/05/27 09:41:02;;;;;;;9.57;4.50;;;27.70;98.10;;;;;;5064862;28;20204;-43
2023/05/27 09:43:29;;;;;;;10.50;4.65;;;27.50;98.10;;;;;;5064510;28;20028;-44
2023/05/27 09:46:03;;;;;;;11.05;3.58;;;27.70;98.20;;;;;;5065054;28;20135;-49
2023/05/27 09:48:31;;;;;;;6.55;2.90;;;27.60;98.20;;;;;;5064301;28;20029;-53
2023/05/27 09:50:59;;;;;;;9.57;2.88;;;27.70;98.20;;;;;;5064850;28;20032;-48
2023/05/27 09:53:27;;;;;;;10.45;2.53;;;27.70;98.20;;;;;;5064433;28;20074;-57
2023/05/27 09:55:54;;;;;;;6.35;2.10;;;27.60;98.40;;;;;;5064763;28;20025;-46
2023/05/27 09:58:25;;;;;;;4.03;1.75;;;27.70;98.30;;;;;;5064275;28;20052;-45
2023/05/27 10:00:52;;;;;;;6.93;1.58;;;27.60;98.30;;;;;;5064525;28;20041;-44
2023/05/27 10:03:22;;;;;;;8.10;1.73;;;27.80;98.40;;;;;;5064268;28;20033;-43
2023/05/27 10:05:51;;;;;;;9.07;1.98;;;27.80;98.60;;;;;;5064547;28;20040;-48
2023/05/27 10:08:18;;;;;;;9.73;1.40;;;27.70;98.30;;;;;;5063887;28;20033;-43
2023/05/27 10:10:46;;;;;;;4.60;1.50;;;27.60;98.40;;;;;;5063957;28;20049;-44
2023/05/27 10:13:16;;;;;;;7.93;1.90;;;27.70;98.40;;;;;;5064020;28;20028;-43
2023/05/27 10:15:50;;;;;;;5.47;1.58;;;27.70;98.50;;;;;;5063835;28;20017;-44
2023/05/27 10:18:29;;;;;;;5.53;1.30;;;27.60;98.50;;;;;;5064172;28;20060;-46
2023/05/27 10:20:58;;;;;;;6.28;1.42;;;27.70;98.50;;;;;;5064290;28;20025;-46
2023/05/27 10:23:29;;;;;;;7.93;1.58;;;27.70;98.60;;;;;;5063969;28;20024;-46
2023/05/27 10:26:07;;;;;;;5.25;1.10;;;27.80;98.60;;;;;;5064359;28;20029;-50
2023/05/27 10:28:41;;;;;;;6.28;1.20;;;27.80;98.60;;;;;;5063792;28;20112;-47
2023/05/27 10:31:20;;;;;;;10.02;1.20;;;27.60;98.60;;;;;;5064265;28;20063;-47
2023/05/27 10:33:54;;;;;;;3.10;1.02;;;27.80;98.70;;;;;;5063785;28;20214;-51
2023/05/27 10:36:31;;;;;;;7.10;1.67;;;27.70;98.60;;;;;;5063782;28;20032;-55
2023/05/27 10:39:16;;;;;;;10.88;2.05;;;27.80;98.70;;;;;;5063574;28;20028;-48
2023/05/27 10:41:51;;;;;;;5.85;1.80;;;27.80;98.70;;;;;;5063784;28;20020;-46
2023/05/27 10:44:32;;;;;;;9.82;1.95;;;27.60;98.70;;;;;;5063820;28;20051;-44
2023/05/27 10:47:10;;;;;;;7.27;1.60;;;27.60;98.70;;;;;;5063516;28;20336;-49
2023/05/27 10:49:39;;;;;;;8.18;2.35;;;27.70;98.70;;;;;;5063623;28;20484;-50
2023/05/27 10:52:17;;;;;;;5.10;1.80;;;27.70;98.70;;;;;;5063648;28;20021;-46
2023/05/27 10:54:46;;;;;;;11.00;1.88;;;27.80;98.70;;;;;;5063637;28;20043;-46
2023/05/27 10:57:14;;;;;;;7.15;1.38;;;27.90;98.80;;;;;;5063587;28;20352;-46
2023/05/27 11:00:08;;;;;;;4.55;1.48;;;27.90;98.80;;;;;;5063419;28;20041;-45
2023/05/27 11:02:40;;;;;;;19.70;2.17;;;27.80;98.80;;;;;;5063614;28;20036;-46
2023/05/27 11:05:11;;;;;;;8.98;1.50;;;27.80;98.80;;;;;;5065837;28;20032;-47
2023/05/27 11:07:42;;;;;;;12.20;4.40;;;27.90;98.80;;;;;;5067549;28;20033;-42
2023/05/27 11:10:10;;;;;;;13.32;3.90;;;27.70;98.70;;;;;;5067311;28;20049;-46
2023/05/27 11:12:36;;;;;;;7.60;3.13;;;27.60;99.10;;;;;;5067430;28;20083;-43
2023/05/27 11:15:03;;;;;;;8.73;2.80;;;27.80;99.20;;;;;;5068291;28;20039;-48
2023/05/27 11:17:30;;;;;;;7.45;2.50;;;27.90;99.20;;;;;;5067286;28;20028;-46
2023/05/27 11:19:58;;;;;;;7.60;2.22;;;27.90;99.20;;;;;;5066507;28;20024;-47
2023/05/27 11:22:25;;;;;;;5.60;2.25;;;28.00;99.10;;;;;;5066453;28;20029;-48
2023/05/27 11:25:01;;;;;;;5.72;1.73;;;28.00;99.10;;;;;;5065623;28;20025;-48
2023/05/27 11:27:35;;;;;;;6.53;1.70;;;28.10;99.10;;;;;;5065465;28;20527;-56
2023/05/27 11:30:11;;;;;;;5.90;2.15;;;28.00;99.10;;;;;;5065462;28;20044;-47
2023/05/27 11:32:38;;;;;;;4.95;1.45;;;27.90;99.10;;;;;;5065776;28;20029;-47
2023/05/27 11:35:05;;;;;;;3.85;1.63;;;28.20;99.10;;;;;;5067189;28;20032;-47
2023/05/27 11:37:38;;;;;;;6.68;1.80;;;28.00;98.90;;;;;;5066563;28;20020;-44
2023/05/27 11:40:15;;;;;;;6.30;1.67;;;28.20;98.90;;;;;;5067074;28;20105;-46
2023/05/27 11:42:46;;;;;;;7.88;2.65;;;28.00;98.90;;;;;;5066761;28;20092;-44
2023/05/27 11:45:19;;;;;;;7.35;3.63;;;28.10;98.80;;;;;;5066819;28;20056;-54
2023/05/27 11:47:50;;;;;;;5.35;3.72;;;28.20;98.80;;;;;;5066644;28;20021;-49
2023/05/27 11:50:18;;;;;;;8.43;4.05;;;28.20;98.70;;;;;;5066866;28;20033;-49
2023/05/27 11:52:55;;;;;;;6.28;3.78;;;28.10;98.80;;;;;;5066643;28;20020;-45
2023/05/27 11:55:23;;;;;;;7.85;3.80;;;28.10;98.60;;;;;;5066885;28;20301;-52
2023/05/27 11:57:50;;;;;;;6.35;3.72;;;28.20;98.50;;;;;;5066673;28;20024;-50
2023/05/27 12:00:17;;;;;;;7.55;3.67;;;28.30;98.50;;;;;;5066895;28;20017;-46
2023/05/27 12:02:45;;;;;;;8.63;3.88;;;28.20;98.40;;;;;;5066385;28;20371;-48
2023/05/27 12:05:11;;;;;;;8.13;3.30;;;28.40;98.40;;;;;;5066492;28;20092;-46
2023/05/27 12:07:40;;;;;;;6.10;3.45;;;28.30;98.40;;;;;;5066324;28;20009;-46
2023/05/27 12:10:08;;;;;;;5.53;3.17;;;28.30;98.40;;;;;;5066297;28;20360;-46
2023/05/27 12:12:34;;;;;;;8.10;2.85;;;28.30;98.30;;;;;;5066093;28;20084;-50
2023/05/27 12:15:03;;;;;;;8.55;3.00;;;28.50;98.30;;;;;;5066384;28;20370;-44
2023/05/27 12:17:29;;;;;;;6.80;2.33;;;28.50;98.20;;;;;;5065130;28;20029;-43
2023/05/27 12:19:56;;;;;;;3.67;2.05;;;28.50;98.10;;;;;;5066243;28;20084;-45
2023/05/27 12:22:23;;;;;;;9.70;2.50;;;28.40;98.10;;;;;;5066102;28;20020;-46
2023/05/27 12:24:51;;;;;;;7.30;2.63;;;28.50;98.00;;;;;;5066153;28;20036;-44
2023/05/27 12:27:20;;;;;;;10.02;2.88;;;28.60;98.00;;;;;;5065802;28;20028;-46
2023/05/27 12:29:47;;;;;;;12.90;2.80;;;28.60;97.90;;;;;;5066015;28;20029;-44
2023/05/27 12:32:14;;;;;;;14.40;2.85;;;28.60;97.90;;;;;;5065803;28;20071;-43
2023/05/27 12:34:41;;;;;;;9.68;2.55;;;28.60;97.80;;;;;;5065773;28;20193;-46
2023/05/27 12:37:07;;;;;;;9.23;2.92;;;28.60;97.80;;;;;;5065830;28;20047;-45
2023/05/27 12:39:34;;;;;;;12.20;2.50;;;28.60;97.90;;;;;;5064811;28;20045;-47
2023/05/27 12:42:01;;;;;;;11.52;2.92;;;28.60;97.90;;;;;;5065842;28;20021;-46
2023/05/27 12:44:29;;;;;;;11.43;2.70;;;28.60;97.90;;;;;;5065954;28;20035;-45
2023/05/27 12:46:55;;;;;;;12.68;2.30;;;28.70;98.10;;;;;;5065632;28;20367;-46
2023/05/27 12:49:22;;;;;;;8.73;2.08;;;28.80;98.20;;;;;;5065461;28;20025;-46